Time;durP1;ratioP1;P1;durP2;ratioP2;P2;SDS_P1;SDS_P2;PMS_P1;PMS_P2;Temp;Humidity;BMP_temperature;BMP_pressure;BME280_temperature;BME280_humidity;BME280_pressure;Samples;Min_cycle;Max_cycle;Signal;HPM_P1;HPM_P2
2023/11/26 00:00:17;;;;;;;1.13;1.13;;;;;;;;;;6279117;28;20606;-68
2023/11/26 00:03:21;;;;;;;1.40;1.40;;;;;;;;;;6281126;28;20302;-68
2023/11/26 00:06:25;;;;;;;1.60;1.10;;;;;;;;;;6281188;28;20302;-69
2023/11/26 00:09:29;;;;;;;1.00;1.00;;;;;;;;;;6281133;28;20290;-69
2023/11/26 00:12:33;;;;;;;1.03;1.03;;;;;;;;;;6281623;28;20343;-69
2023/11/26 00:15:38;;;;;;;1.20;1.10;;;;;;;;;;6281055;28;20318;-68
2023/11/26 00:18:42;;;;;;;1.10;1.10;;;;;;;;;;6280870;28;20315;-68
2023/11/26 00:21:48;;;;;;;2.73;1.13;;;;;;;;;;6281318;28;20446;-68
2023/11/26 00:24:52;;;;;;;1.40;1.40;;;;;;;;;;6280844;28;20351;-69
2023/11/26 00:27:56;;;;;;;1.00;1.00;;;;;;;;;;6263344;28;20482;-70
2023/11/26 00:31:01;;;;;;;1.20;1.20;;;;;;;;;;6280584;28;20614;-70
2023/11/26 00:34:07;;;;;;;1.10;1.10;;;;;;;;;;6295245;28;20295;-70
2023/11/26 00:37:11;;;;;;;1.50;1.20;;;;;;;;;;6281001;28;20298;-69
2023/11/26 00:40:15;;;;;;;0.90;0.90;;;;;;;;;;6295422;28;20295;-68
2023/11/26 00:43:19;;;;;;;1.03;1.03;;;;;;;;;;6261848;28;20369;-68
2023/11/26 00:46:24;;;;;;;1.43;1.13;;;;;;;;;;6262725;28;20310;-69
2023/11/26 00:49:28;;;;;;;1.23;1.23;;;;;;;;;;6295411;28;20391;-68
2023/11/26 00:52:32;;;;;;;1.10;1.00;;;;;;;;;;6280842;28;20486;-68
2023/11/26 00:55:36;;;;;;;0.87;0.87;;;;;;;;;;6279984;28;20298;-68
2023/11/26 00:58:40;;;;;;;1.03;1.03;;;;;;;;;;6295222;28;20285;-68
2023/11/26 01:01:45;;;;;;;0.97;0.97;;;;;;;;;;6280063;28;20627;-69
2023/11/26 01:04:50;;;;;;;0.90;0.90;;;;;;;;;;6279278;28;20683;-69
2023/11/26 01:07:54;;;;;;;1.10;1.10;;;;;;;;;;6280176;28;20298;-69
2023/11/26 01:10:58;;;;;;;1.20;1.20;;;;;;;;;;6280277;28;20598;-69
2023/11/26 01:14:02;;;;;;;0.87;0.87;;;;;;;;;;6262223;28;20296;-68
2023/11/26 01:17:07;;;;;;;1.00;1.00;;;;;;;;;;6261897;28;20294;-68
2023/11/26 01:20:12;;;;;;;1.90;1.10;;;;;;;;;;6280147;28;20379;-69
2023/11/26 01:23:16;;;;;;;1.03;1.00;;;;;;;;;;6280075;28;20291;-69
2023/11/26 01:26:20;;;;;;;1.00;1.00;;;;;;;;;;6295360;28;20289;-69
2023/11/26 01:29:24;;;;;;;1.10;1.00;;;;;;;;;;6280342;28;20619;-68
2023/11/26 01:32:31;;;;;;;1.10;1.10;;;;;;;;;;6295919;28;20299;-69
2023/11/26 01:35:36;;;;;;;1.00;1.00;;;;;;;;;;6279203;28;20299;-69
2023/11/26 01:38:40;;;;;;;1.20;1.20;;;;;;;;;;6279225;28;20601;-71
2023/11/26 01:41:44;;;;;;;1.10;1.10;;;;;;;;;;6279720;28;20316;-69
2023/11/26 01:44:48;;;;;;;1.50;1.20;;;;;;;;;;6279702;28;20302;-69
2023/11/26 01:47:53;;;;;;;1.27;1.13;;;;;;;;;;6279255;28;20306;-71
2023/11/26 01:50:59;;;;;;;1.07;1.07;;;;;;;;;;6279599;28;20283;-69
2023/11/26 01:54:03;;;;;;;1.20;1.10;;;;;;;;;;6261420;28;20290;-69
2023/11/26 01:57:08;;;;;;;3.47;2.77;;;;;;;;;;6279640;28;20303;-69
2023/11/26 02:00:14;;;;;;;1.67;1.63;;;;;;;;;;6259066;28;20299;-67
2023/11/26 02:03:22;;;;;;;1.60;1.50;;;;;;;;;;6260523;28;20295;-68
2023/11/26 02:06:26;;;;;;;1.13;1.03;;;;;;;;;;6253721;28;20303;-68
2023/11/26 02:09:30;;;;;;;1.60;1.10;;;;;;;;;;6260528;28;20342;-68
2023/11/26 02:12:34;;;;;;;1.20;1.10;;;;;;;;;;6278576;28;20290;-68
2023/11/26 02:15:38;;;;;;;1.00;1.00;;;;;;;;;;6278143;28;20287;-69
2023/11/26 02:18:43;;;;;;;1.00;1.00;;;;;;;;;;6278362;28;20294;-69
2023/11/26 02:21:47;;;;;;;1.00;1.00;;;;;;;;;;6260791;28;20294;-69
2023/11/26 02:24:54;;;;;;;1.10;1.10;;;;;;;;;;6260573;28;20294;-69
2023/11/26 02:27:59;;;;;;;0.90;0.90;;;;;;;;;;6278149;28;20365;-69
2023/11/26 02:31:04;;;;;;;1.20;1.20;;;;;;;;;;6251650;28;20366;-70
2023/11/26 02:34:08;;;;;;;1.30;1.30;;;;;;;;;;6251935;28;20302;-70
2023/11/26 02:37:12;;;;;;;1.10;1.10;;;;;;;;;;6260506;28;20334;-69
2023/11/26 02:40:19;;;;;;;1.73;1.60;;;;;;;;;;6293002;28;20302;-68
2023/11/26 02:43:22;;;;;;;0.90;0.90;;;;;;;;;;6277541;28;20301;-70
2023/11/26 02:46:27;;;;;;;1.10;1.10;;;;;;;;;;6278004;28;20294;-67
2023/11/26 02:49:31;;;;;;;1.17;1.17;;;;;;;;;;6259136;28;20312;-68
2023/11/26 02:52:36;;;;;;;0.97;0.97;;;;;;;;;;6278069;28;20258;-69
2023/11/26 02:55:41;;;;;;;1.30;1.30;;;;;;;;;;6249676;28;20235;-68
2023/11/26 02:58:45;;;;;;;1.80;1.07;;;;;;;;;;6279067;28;20306;-76
2023/11/26 03:01:48;;;;;;;1.00;1.00;;;;;;;;;;6264935;28;20576;-68
2023/11/26 03:04:59;;;;;;;1.30;1.30;;;;;;;;;;6297137;28;20314;-67
2023/11/26 03:08:20;;;;;;;1.00;1.00;;;;;;;;;;6282994;28;20393;-68
2023/11/26 03:14:53;;;;;;;1.10;1.10;;;;;;;;;;6281717;28;20386;-68
2023/11/26 03:17:57;;;;;;;2.33;1.23;;;;;;;;;;6282327;28;20302;-68
2023/11/26 03:21:01;;;;;;;1.13;1.10;;;;;;;;;;6297733;28;20307;-68
2023/11/26 03:24:05;;;;;;;1.57;1.57;;;;;;;;;;6282242;28;20301;-71
2023/11/26 03:27:12;;;;;;;1.60;1.60;;;;;;;;;;6282533;28;20300;-68
2023/11/26 03:30:17;;;;;;;2.20;1.83;;;;;;;;;;6287820;28;20294;-69
2023/11/26 03:33:20;;;;;;;1.30;1.30;;;;;;;;;;6282779;28;20283;-70
2023/11/26 03:36:25;;;;;;;1.37;1.37;;;;;;;;;;6282515;28;20304;-70
2023/11/26 03:39:30;;;;;;;1.13;1.10;;;;;;;;;;6263331;28;20364;-69
2023/11/26 03:42:39;;;;;;;1.20;1.20;;;;;;;;;;6282128;28;20302;-67
2023/11/26 03:45:42;;;;;;;0.93;0.93;;;;;;;;;;6281428;28;20309;-68
2023/11/26 03:48:46;;;;;;;1.30;1.30;;;;;;;;;;6281279;28;20316;-68
2023/11/26 03:51:50;;;;;;;1.10;1.10;;;;;;;;;;6282401;28;20315;-70
2023/11/26 03:54:54;;;;;;;1.60;1.20;;;;;;;;;;6281494;28;20306;-69
2023/11/26 03:57:59;;;;;;;1.00;1.00;;;;;;;;;;6296092;28;20331;-68
2023/11/26 04:01:04;;;;;;;1.20;0.87;;;;;;;;;;6294615;28;20302;-68
2023/11/26 04:04:08;;;;;;;0.97;0.97;;;;;;;;;;6279941;28;20573;-71
2023/11/26 04:07:12;;;;;;;1.50;1.40;;;;;;;;;;6273194;28;20295;-68
2023/11/26 04:10:16;;;;;;;1.00;1.00;;;;;;;;;;6280669;28;20295;-69
2023/11/26 04:13:35;;;;;;;0.90;0.90;;;;;;;;;;6281111;28;20286;-69
2023/11/26 04:16:48;;;;;;;0.90;0.90;;;;;;;;;;6296291;28;20325;-76
2023/11/26 04:19:52;;;;;;;0.87;0.87;;;;;;;;;;6281050;28;20663;-69
2023/11/26 04:22:56;;;;;;;0.80;0.80;;;;;;;;;;6281268;28;20294;-69
2023/11/26 04:26:01;;;;;;;0.87;0.87;;;;;;;;;;6281503;28;20291;-69
2023/11/26 04:29:06;;;;;;;1.00;1.00;;;;;;;;;;6281078;28;20291;-68
2023/11/26 04:32:10;;;;;;;1.00;0.80;;;;;;;;;;6281429;28;20614;-69
2023/11/26 04:35:14;;;;;;;0.80;0.80;;;;;;;;;;6280825;28;20306;-71
2023/11/26 04:38:18;;;;;;;1.00;1.00;;;;;;;;;;6280261;28;20302;-69
2023/11/26 04:41:22;;;;;;;1.10;0.97;;;;;;;;;;6280839;28;20318;-69
2023/11/26 04:44:28;;;;;;;1.03;0.97;;;;;;;;;;6280858;28;20821;-67
2023/11/26 04:47:32;;;;;;;1.00;1.00;;;;;;;;;;6280909;28;20295;-69
2023/11/26 04:50:36;;;;;;;0.90;0.90;;;;;;;;;;6279900;28;20291;-70
2023/11/26 04:53:40;;;;;;;1.00;1.00;;;;;;;;;;6280312;28;20303;-67
2023/11/26 04:56:44;;;;;;;0.80;0.80;;;;;;;;;;6280503;28;20307;-69
2023/11/26 04:59:50;;;;;;;1.00;1.00;;;;;;;;;;6278575;28;20303;-70
2023/11/26 05:02:53;;;;;;;1.00;1.00;;;;;;;;;;6253425;28;20298;-71
2023/11/26 05:05:58;;;;;;;0.90;0.90;;;;;;;;;;6280375;28;20311;-69
2023/11/26 05:09:02;;;;;;;0.90;0.90;;;;;;;;;;6253029;28;20311;-70
2023/11/26 05:12:07;;;;;;;1.07;1.07;;;;;;;;;;6262657;28;20476;-71
2023/11/26 05:15:12;;;;;;;1.00;1.00;;;;;;;;;;6280825;28;20327;-69
2023/11/26 05:18:16;;;;;;;0.80;0.80;;;;;;;;;;6280080;28;20296;-72
2023/11/26 05:21:20;;;;;;;0.90;0.90;;;;;;;;;;6279627;28;20298;-69
2023/11/26 05:24:24;;;;;;;1.50;1.10;;;;;;;;;;6279448;28;20466;-68
2023/11/26 05:27:28;;;;;;;0.90;0.90;;;;;;;;;;6279882;28;20475;-69
2023/11/26 05:30:33;;;;;;;0.90;0.90;;;;;;;;;;6279203;28;20294;-68
2023/11/26 05:33:37;;;;;;;0.90;0.90;;;;;;;;;;6279675;28;20299;-71
2023/11/26 05:36:41;;;;;;;1.10;1.10;;;;;;;;;;6279695;28;20327;-72
2023/11/26 05:39:45;;;;;;;0.93;0.93;;;;;;;;;;6278992;28;20359;-67
2023/11/26 05:42:52;;;;;;;1.37;1.10;;;;;;;;;;6278812;28;20299;-69
2023/11/26 05:45:57;;;;;;;2.63;1.03;;;;;;;;;;6279157;28;20302;-70
2023/11/26 05:49:01;;;;;;;2.00;1.20;;;;;;;;;;6260757;28;20807;-68
2023/11/26 05:52:05;;;;;;;0.90;0.90;;;;;;;;;;6279187;28;20305;-69
2023/11/26 05:55:10;;;;;;;1.07;1.07;;;;;;;;;;6276113;28;20494;-69
2023/11/26 05:58:14;;;;;;;1.00;1.00;;;;;;;;;;6286296;28;20477;-69
2023/11/26 06:01:24;;;;;;;1.40;0.93;;;;;;;;;;6277235;28;20320;-69
2023/11/26 06:04:28;;;;;;;1.10;1.10;;;;;;;;;;6278484;28;20335;-70
2023/11/26 06:07:32;;;;;;;0.90;0.90;;;;;;;;;;6254420;28;20275;-69
2023/11/26 06:10:36;;;;;;;1.20;1.20;;;;;;;;;;6263657;28;20293;-69
2023/11/26 06:13:39;;;;;;;1.00;1.00;;;;;;;;;;6278851;28;20396;-69
2023/11/26 06:16:45;;;;;;;0.80;0.80;;;;;;;;;;6278985;28;20295;-71
2023/11/26 06:19:49;;;;;;;1.00;1.00;;;;;;;;;;6278239;28;20411;-67
2023/11/26 06:22:53;;;;;;;0.90;0.90;;;;;;;;;;6278321;28;20298;-69
2023/11/26 06:25:57;;;;;;;2.40;1.13;;;;;;;;;;6279115;28;20289;-68
2023/11/26 06:29:01;;;;;;;1.00;1.00;;;;;;;;;;6279065;28;20532;-69
2023/11/26 06:32:06;;;;;;;1.00;1.00;;;;;;;;;;6279025;28;20304;-68
2023/11/26 06:35:12;;;;;;;2.20;1.10;;;;;;;;;;6278225;28;20294;-69
2023/11/26 06:38:16;;;;;;;0.97;0.97;;;;;;;;;;6278702;28;20338;-68
2023/11/26 06:41:24;;;;;;;1.10;1.10;;;;;;;;;;6284608;28;20299;-69
2023/11/26 06:44:28;;;;;;;1.00;1.00;;;;;;;;;;6277903;28;20307;-69
2023/11/26 06:47:34;;;;;;;1.07;1.07;;;;;;;;;;6278192;28;20282;-70
2023/11/26 06:50:38;;;;;;;0.93;0.93;;;;;;;;;;6277296;28;20297;-69
2023/11/26 06:53:42;;;;;;;1.80;0.90;;;;;;;;;;6277780;28;20294;-69
2023/11/26 06:56:46;;;;;;;1.00;1.00;;;;;;;;;;6278323;28;20307;-69
2023/11/26 06:59:50;;;;;;;1.00;1.00;;;;;;;;;;6291141;28;20435;-73
2023/11/26 07:02:55;;;;;;;1.10;1.10;;;;;;;;;;6253543;28;20311;-71
2023/11/26 07:05:59;;;;;;;0.97;0.97;;;;;;;;;;6269985;28;20298;-68
2023/11/26 07:09:06;;;;;;;1.00;1.00;;;;;;;;;;6278754;28;20297;-69
2023/11/26 07:12:10;;;;;;;1.00;1.00;;;;;;;;;;6278707;28;20286;-72
2023/11/26 07:15:13;;;;;;;1.10;1.10;;;;;;;;;;6259099;28;20488;-70
2023/11/26 07:18:19;;;;;;;1.10;1.10;;;;;;;;;;6277650;28;20302;-69
2023/11/26 07:21:24;;;;;;;1.03;1.03;;;;;;;;;;6278558;28;20318;-69
2023/11/26 07:24:28;;;;;;;0.97;0.97;;;;;;;;;;6259764;28;20352;-70
2023/11/26 07:27:32;;;;;;;1.07;1.07;;;;;;;;;;6278258;28;20369;-69
2023/11/26 07:30:36;;;;;;;1.20;1.20;;;;;;;;;;6275756;28;20288;-69
2023/11/26 07:33:41;;;;;;;0.90;0.90;;;;;;;;;;6277375;28;20297;-71
2023/11/26 07:36:50;;;;;;;1.17;1.17;;;;;;;;;;6277539;28;20604;-68
2023/11/26 07:39:55;;;;;;;1.10;1.10;;;;;;;;;;6274735;28;20299;-69
2023/11/26 07:42:59;;;;;;;1.00;1.00;;;;;;;;;;6284545;28;20287;-69
2023/11/26 07:46:04;;;;;;;1.00;1.00;;;;;;;;;;6284693;28;20299;-68
2023/11/26 07:49:09;;;;;;;1.10;1.10;;;;;;;;;;6282583;28;20307;-68
2023/11/26 07:52:13;;;;;;;1.10;1.10;;;;;;;;;;6281948;28;20304;-71
2023/11/26 07:55:17;;;;;;;1.90;1.10;;;;;;;;;;6281558;28;20303;-69
2023/11/26 07:58:22;;;;;;;1.37;1.13;;;;;;;;;;6296419;28;20241;-68
2023/11/26 08:01:26;;;;;;;0.93;0.93;;;;;;;;;;6279802;28;20287;-69
2023/11/26 08:04:31;;;;;;;1.10;1.10;;;;;;;;;;6281148;28;20381;-69
2023/11/26 08:07:36;;;;;;;1.53;1.10;;;;;;;;;;6281228;28;20309;-69
2023/11/26 08:10:40;;;;;;;1.00;1.00;;;;;;;;;;6281645;28;20298;-70
2023/11/26 08:13:44;;;;;;;1.30;1.20;;;;;;;;;;6281389;28;20295;-71
2023/11/26 08:16:48;;;;;;;1.13;1.13;;;;;;;;;;6277344;28;20299;-70
2023/11/26 08:19:54;;;;;;;1.00;1.00;;;;;;;;;;6281218;28;20390;-68
2023/11/26 08:23:01;;;;;;;1.17;1.10;;;;;;;;;;6281175;28;20294;-69
2023/11/26 08:26:05;;;;;;;1.17;1.17;;;;;;;;;;6254155;28;20311;-70
2023/11/26 08:29:18;;;;;;;1.10;1.10;;;;;;;;;;6280463;28;20306;-69
2023/11/26 08:32:24;;;;;;;1.10;1.00;;;;;;;;;;6280763;28;20299;-70
2023/11/26 08:35:29;;;;;;;2.03;1.10;;;;;;;;;;6280528;28;20306;-69
2023/11/26 08:38:36;;;;;;;1.00;1.00;;;;;;;;;;6256072;28;20307;-69
2023/11/26 08:41:42;;;;;;;1.27;1.27;;;;;;;;;;6264874;28;20286;-70
2023/11/26 08:44:47;;;;;;;1.30;1.30;;;;;;;;;;6280543;28;20298;-69
2023/11/26 08:47:53;;;;;;;1.20;1.20;;;;;;;;;;6280523;28;20303;-71
2023/11/26 08:50:58;;;;;;;1.10;1.10;;;;;;;;;;6280650;28;20298;-71
2023/11/26 08:54:02;;;;;;;1.23;1.23;;;;;;;;;;6279857;28;20326;-70
2023/11/26 08:57:06;;;;;;;1.10;1.10;;;;;;;;;;6279470;28;20302;-70
2023/11/26 09:00:12;;;;;;;1.20;1.20;;;;;;;;;;6278459;28;20327;-69
2023/11/26 09:03:15;;;;;;;1.20;1.20;;;;;;;;;;6280386;28;20282;-70
2023/11/26 09:06:21;;;;;;;1.10;1.10;;;;;;;;;;6279860;28;20282;-69
2023/11/26 09:09:27;;;;;;;1.13;1.13;;;;;;;;;;6280423;28;20302;-74
2023/11/26 09:12:31;;;;;;;1.20;1.20;;;;;;;;;;6280640;28;20300;-70
2023/11/26 09:15:38;;;;;;;1.13;1.13;;;;;;;;;;6280210;28;20285;-69
2023/11/26 09:18:42;;;;;;;1.40;1.30;;;;;;;;;;6279177;28;20309;-70
2023/11/26 09:21:49;;;;;;;1.23;1.23;;;;;;;;;;6280164;28;20290;-68
2023/11/26 09:24:54;;;;;;;1.10;1.10;;;;;;;;;;6279772;28;20485;-70
2023/11/26 09:27:58;;;;;;;1.20;1.20;;;;;;;;;;6279145;28;20292;-68
2023/11/26 09:31:03;;;;;;;1.20;1.20;;;;;;;;;;6279684;28;20459;-68
2023/11/26 09:34:08;;;;;;;1.70;1.20;;;;;;;;;;6279607;28;20354;-68
2023/11/26 09:37:13;;;;;;;1.33;1.20;;;;;;;;;;6279721;28;20554;-68
2023/11/26 09:40:17;;;;;;;1.30;1.20;;;;;;;;;;6278780;28;20238;-67
2023/11/26 09:43:21;;;;;;;1.30;1.30;;;;;;;;;;6279058;28;20300;-69
2023/11/26 09:46:26;;;;;;;1.37;1.23;;;;;;;;;;6279304;28;20283;-68
2023/11/26 09:49:30;;;;;;;2.60;1.40;;;;;;;;;;6279278;28;20546;-69
2023/11/26 09:52:36;;;;;;;1.53;1.27;;;;;;;;;;6278630;28;20298;-69
2023/11/26 09:55:40;;;;;;;1.27;1.27;;;;;;;;;;6279170;28;20303;-70
2023/11/26 09:58:45;;;;;;;1.73;1.43;;;;;;;;;;6277578;28;20444;-76
2023/11/26 10:01:48;;;;;;;1.57;1.53;;;;;;;;;;6279339;28;20507;-69
2023/11/26 10:04:53;;;;;;;1.70;1.60;;;;;;;;;;6278034;28;20300;-70
2023/11/26 10:07:59;;;;;;;1.33;1.30;;;;;;;;;;6278986;28;20302;-69
2023/11/26 10:11:03;;;;;;;1.30;1.30;;;;;;;;;;6279567;28;20493;-69
2023/11/26 10:14:14;;;;;;;1.37;1.20;;;;;;;;;;6278752;28;20299;-70
2023/11/26 10:17:18;;;;;;;1.60;1.60;;;;;;;;;;6278759;28;20615;-70
2023/11/26 10:20:22;;;;;;;1.40;1.30;;;;;;;;;;6278635;28;20309;-69
2023/11/26 10:23:35;;;;;;;1.50;1.50;;;;;;;;;;6278199;28;20309;-70
2023/11/26 10:26:39;;;;;;;1.40;1.40;;;;;;;;;;6278320;28;20293;-70
2023/11/26 10:29:43;;;;;;;1.40;1.30;;;;;;;;;;6278219;28;20294;-70
2023/11/26 10:32:59;;;;;;;1.50;1.50;;;;;;;;;;6278436;28;20428;-70
2023/11/26 10:36:03;;;;;;;1.40;1.37;;;;;;;;;;6279266;28;20310;-70
2023/11/26 10:39:11;;;;;;;1.53;1.40;;;;;;;;;;6278487;28;20304;-69
2023/11/26 10:42:16;;;;;;;1.53;1.43;;;;;;;;;;6278139;28;20297;-69
2023/11/26 10:45:21;;;;;;;1.50;1.50;;;;;;;;;;6278455;28;20306;-72
2023/11/26 10:48:27;;;;;;;1.27;1.27;;;;;;;;;;6278556;28;20297;-69
2023/11/26 10:51:32;;;;;;;1.70;1.60;;;;;;;;;;6279017;28;20295;-70
2023/11/26 10:54:43;;;;;;;1.30;1.30;;;;;;;;;;6277485;28;20296;-69
2023/11/26 10:57:50;;;;;;;1.73;1.63;;;;;;;;;;6277968;28;20341;-69
2023/11/26 11:00:56;;;;;;;1.17;1.17;;;;;;;;;;6276323;28;20390;-69
2023/11/26 11:04:01;;;;;;;1.60;1.50;;;;;;;;;;6277338;28;20295;-69
2023/11/26 11:07:05;;;;;;;1.20;1.20;;;;;;;;;;6258338;28;20308;-69
2023/11/26 11:10:18;;;;;;;1.50;1.50;;;;;;;;;;6278132;28;20290;-70
2023/11/26 11:13:23;;;;;;;1.07;1.07;;;;;;;;;;6277801;28;20297;-68
2023/11/26 11:16:28;;;;;;;1.20;1.20;;;;;;;;;;6278009;28;20303;-69
2023/11/26 11:19:49;;;;;;;1.30;1.30;;;;;;;;;;6279457;28;20299;-69
2023/11/26 11:22:54;;;;;;;1.47;1.47;;;;;;;;;;6297464;28;20308;-71
2023/11/26 11:26:00;;;;;;;1.30;1.30;;;;;;;;;;6283116;28;20297;-71
2023/11/26 11:29:04;;;;;;;1.40;1.40;;;;;;;;;;6281974;28;20287;-69
2023/11/26 11:32:09;;;;;;;1.70;1.60;;;;;;;;;;6283237;28;20312;-71
2023/11/26 11:35:37;;;;;;;1.40;1.40;;;;;;;;;;6282334;28;20313;-69
2023/11/26 11:39:04;;;;;;;3.60;2.60;;;;;;;;;;6281832;28;20306;-69
2023/11/26 11:42:15;;;;;;;2.33;2.10;;;;;;;;;;6282625;28;20315;-70
2023/11/26 11:45:28;;;;;;;1.70;1.70;;;;;;;;;;6282182;28;20576;-70
2023/11/26 11:48:55;;;;;;;1.47;1.47;;;;;;;;;;6281921;28;20312;-69
2023/11/26 11:51:59;;;;;;;1.50;1.50;;;;;;;;;;6282583;28;20316;-69
2023/11/26 11:55:15;;;;;;;1.47;1.47;;;;;;;;;;6281996;28;20341;-69
2023/11/26 11:58:21;;;;;;;1.30;1.30;;;;;;;;;;6281713;28;20297;-70
2023/11/26 12:01:25;;;;;;;1.53;1.53;;;;;;;;;;6280006;28;20302;-69
2023/11/26 12:04:46;;;;;;;1.63;1.53;;;;;;;;;;6281186;28;20655;-68
2023/11/26 12:07:52;;;;;;;1.50;1.50;;;;;;;;;;6295199;28;20351;-69
2023/11/26 12:11:01;;;;;;;1.70;1.70;;;;;;;;;;6281736;28;20326;-68
2023/11/26 12:14:06;;;;;;;2.50;1.77;;;;;;;;;;6281305;28;20358;-69
2023/11/26 12:17:10;;;;;;;1.70;1.53;;;;;;;;;;6281465;28;20298;-69
2023/11/26 12:20:14;;;;;;;3.07;1.43;;;;;;;;;;6282137;28;20292;-68
2023/11/26 12:23:31;;;;;;;1.50;1.50;;;;;;;;;;6281153;28;20575;-69
2023/11/26 12:26:37;;;;;;;1.47;1.43;;;;;;;;;;6281254;28;20291;-71
2023/11/26 12:29:42;;;;;;;1.60;1.60;;;;;;;;;;6280822;28;20294;-68
2023/11/26 12:32:48;;;;;;;4.00;1.50;;;;;;;;;;6280277;28;20307;-70
2023/11/26 12:35:52;;;;;;;1.50;1.50;;;;;;;;;;6281217;28;20310;-70
2023/11/26 12:38:56;;;;;;;1.50;1.50;;;;;;;;;;6262650;28;20294;-69
2023/11/26 12:42:00;;;;;;;1.37;1.37;;;;;;;;;;6280967;28;20303;-72
2023/11/26 12:45:10;;;;;;;1.90;1.60;;;;;;;;;;6280733;28;20299;-68
2023/11/26 12:48:14;;;;;;;1.60;1.50;;;;;;;;;;6280806;28;20313;-72
2023/11/26 12:51:19;;;;;;;1.60;1.50;;;;;;;;;;6254135;28;20222;-69
2023/11/26 12:54:24;;;;;;;3.67;3.03;;;;;;;;;;6279804;28;20302;-68
2023/11/26 12:57:28;;;;;;;1.97;1.87;;;;;;;;;;6280609;28;20328;-69
2023/11/26 13:00:38;;;;;;;1.80;1.80;;;;;;;;;;6278449;28;20293;-69
2023/11/26 13:03:49;;;;;;;1.50;1.50;;;;;;;;;;6279926;28;20299;-69
2023/11/26 13:06:56;;;;;;;1.30;1.30;;;;;;;;;;6280847;28;20290;-70
2023/11/26 13:10:01;;;;;;;1.50;1.50;;;;;;;;;;6280126;28;20290;-70
2023/11/26 13:13:05;;;;;;;1.57;1.57;;;;;;;;;;6279755;28;20337;-69
2023/11/26 13:16:11;;;;;;;1.97;1.60;;;;;;;;;;6280342;28;20291;-69
2023/11/26 13:19:15;;;;;;;1.93;1.73;;;;;;;;;;6279763;28;20305;-69
2023/11/26 13:22:20;;;;;;;1.67;1.67;;;;;;;;;;6280667;28;20309;-68
2023/11/26 13:25:24;;;;;;;1.47;1.47;;;;;;;;;;6279987;28;20301;-68
2023/11/26 13:28:30;;;;;;;1.60;1.50;;;;;;;;;;6279263;28;20290;-68
2023/11/26 13:31:35;;;;;;;2.00;2.00;;;;;;;;;;6280162;28;20322;-69
2023/11/26 13:34:39;;;;;;;1.57;1.57;;;;;;;;;;6279969;28;20291;-70
2023/11/26 13:37:43;;;;;;;2.53;1.90;;;;;;;;;;6294507;28;20302;-71
2023/11/26 13:40:47;;;;;;;2.10;1.90;;;;;;;;;;6280168;28;20305;-69
2023/11/26 13:43:52;;;;;;;1.80;1.80;;;;;;;;;;6279004;28;20241;-69
2023/11/26 13:46:57;;;;;;;2.70;2.23;;;;;;;;;;6280328;28;20330;-69
2023/11/26 13:50:01;;;;;;;1.90;1.80;;;;;;;;;;6279645;28;20321;-69
2023/11/26 13:53:06;;;;;;;1.67;1.57;;;;;;;;;;6279425;28;20294;-69
2023/11/26 13:56:10;;;;;;;1.50;1.50;;;;;;;;;;6280213;28;20298;-71
2023/11/26 13:59:14;;;;;;;2.23;2.17;;;;;;;;;;6277311;28;20301;-69
2023/11/26 14:02:19;;;;;;;1.77;1.67;;;;;;;;;;6279455;28;20488;-69
2023/11/26 14:05:23;;;;;;;2.20;1.73;;;;;;;;;;6278102;28;20314;-70
2023/11/26 14:08:27;;;;;;;1.77;1.77;;;;;;;;;;6278544;28;20305;-69
2023/11/26 14:11:31;;;;;;;2.00;1.90;;;;;;;;;;6267852;28;20385;-69
2023/11/26 14:14:35;;;;;;;1.60;1.60;;;;;;;;;;6278494;28;20302;-71
2023/11/26 14:17:40;;;;;;;1.60;1.60;;;;;;;;;;6278216;28;20540;-69
2023/11/26 14:20:44;;;;;;;3.90;2.17;;;;;;;;;;6279118;28;20318;-70
2023/11/26 14:23:48;;;;;;;1.80;1.70;;;;;;;;;;6278676;28;20295;-69
2023/11/26 14:26:52;;;;;;;1.63;1.57;;;;;;;;;;6279830;28;20449;-69
2023/11/26 14:29:55;;;;;;;2.10;1.70;;;;;;;;;;6278497;28;20299;-70
2023/11/26 14:33:01;;;;;;;1.83;1.70;;;;;;;;;;6278704;28;20600;-69
2023/11/26 14:36:05;;;;;;;1.70;1.70;;;;;;;;;;6279147;28;20306;-68
2023/11/26 14:39:11;;;;;;;1.93;1.70;;;;;;;;;;6277959;28;20295;-71
2023/11/26 14:42:15;;;;;;;1.80;1.80;;;;;;;;;;6278275;28;20306;-70
2023/11/26 14:45:19;;;;;;;1.63;1.53;;;;;;;;;;6278172;28;20502;-69
2023/11/26 14:48:24;;;;;;;1.93;1.93;;;;;;;;;;6278394;28;20290;-69
2023/11/26 14:51:29;;;;;;;1.47;1.47;;;;;;;;;;6279000;28;20302;-70
2023/11/26 14:54:32;;;;;;;1.67;1.57;;;;;;;;;;6279853;28;20286;-68
2023/11/26 14:57:36;;;;;;;1.60;1.50;;;;;;;;;;6288931;28;20337;-69
2023/11/26 15:00:40;;;;;;;1.70;1.60;;;;;;;;;;6263465;28;20502;-69
2023/11/26 15:03:47;;;;;;;1.50;1.50;;;;;;;;;;6283247;28;20293;-68
2023/11/26 15:06:53;;;;;;;1.70;1.60;;;;;;;;;;6283586;28;20306;-69
2023/11/26 15:09:57;;;;;;;1.70;1.70;;;;;;;;;;6282778;28;20301;-69
2023/11/26 15:13:01;;;;;;;1.60;1.60;;;;;;;;;;6282047;28;20286;-72
2023/11/26 15:16:06;;;;;;;1.50;1.50;;;;;;;;;;6266468;28;20296;-70
2023/11/26 15:19:11;;;;;;;2.93;1.53;;;;;;;;;;6266222;28;20295;-69
2023/11/26 15:22:15;;;;;;;1.67;1.67;;;;;;;;;;6283655;28;20298;-69
2023/11/26 15:25:19;;;;;;;1.63;1.63;;;;;;;;;;6283177;28;20441;-70
2023/11/26 15:28:23;;;;;;;1.33;1.30;;;;;;;;;;6282451;28;20309;-69
2023/11/26 15:31:27;;;;;;;1.53;1.50;;;;;;;;;;6283307;28;20305;-69
2023/11/26 15:34:33;;;;;;;1.50;1.50;;;;;;;;;;6281131;28;20302;-68
2023/11/26 15:37:37;;;;;;;1.80;1.80;;;;;;;;;;6282761;28;20298;-70
2023/11/26 15:40:42;;;;;;;1.57;1.57;;;;;;;;;;6283036;28;20286;-71
2023/11/26 15:43:46;;;;;;;2.07;1.83;;;;;;;;;;6282837;28;20302;-71
2023/11/26 15:46:51;;;;;;;1.57;1.53;;;;;;;;;;6283502;28;20293;-69
2023/11/26 15:49:56;;;;;;;1.90;1.80;;;;;;;;;;6264919;28;20491;-69
2023/11/26 15:53:00;;;;;;;1.60;1.60;;;;;;;;;;6283080;28;20290;-70
2023/11/26 15:56:04;;;;;;;1.73;1.63;;;;;;;;;;6283158;28;20306;-71
2023/11/26 15:59:08;;;;;;;1.40;1.40;;;;;;;;;;6282923;28;20587;-71
2023/11/26 16:02:13;;;;;;;1.60;1.60;;;;;;;;;;6283235;28;20507;-70
2023/11/26 16:05:18;;;;;;;1.90;1.80;;;;;;;;;;6256321;28;20251;-69
2023/11/26 16:08:22;;;;;;;1.70;1.60;;;;;;;;;;6255039;28;20583;-70
2023/11/26 16:11:26;;;;;;;1.83;1.83;;;;;;;;;;6250458;28;20350;-69
2023/11/26 16:14:30;;;;;;;1.87;1.83;;;;;;;;;;6257585;28;20310;-69
2023/11/26 16:17:34;;;;;;;2.03;1.93;;;;;;;;;;6258569;28;20303;-69
2023/11/26 16:20:39;;;;;;;1.90;1.80;;;;;;;;;;6257038;28;20299;-68
2023/11/26 16:23:43;;;;;;;2.00;1.90;;;;;;;;;;6257792;28;20328;-69
2023/11/26 16:26:47;;;;;;;1.70;1.70;;;;;;;;;;6257755;28;20318;-68
2023/11/26 16:29:51;;;;;;;1.77;1.77;;;;;;;;;;6257486;28;20299;-69
2023/11/26 16:32:55;;;;;;;1.80;1.80;;;;;;;;;;6255861;28;20307;-70
2023/11/26 16:36:00;;;;;;;1.87;1.87;;;;;;;;;;6257706;28;20291;-68
2023/11/26 16:39:09;;;;;;;1.90;1.90;;;;;;;;;;6256998;28;20294;-69
2023/11/26 16:42:13;;;;;;;2.10;2.00;;;;;;;;;;6257740;28;20306;-68
2023/11/26 16:45:17;;;;;;;1.90;1.90;;;;;;;;;;6256818;28;20601;-68
2023/11/26 16:48:21;;;;;;;2.00;1.90;;;;;;;;;;6257336;28;20631;-68
2023/11/26 16:51:28;;;;;;;2.33;2.20;;;;;;;;;;6257450;28;20479;-68
2023/11/26 16:54:32;;;;;;;1.70;1.70;;;;;;;;;;6255584;28;20287;-70
2023/11/26 16:57:35;;;;;;;1.90;1.80;;;;;;;;;;6255671;28;20302;-68
2023/11/26 17:00:39;;;;;;;1.77;1.77;;;;;;;;;;6257069;28;20299;-69
2023/11/26 17:03:43;;;;;;;2.10;2.10;;;;;;;;;;6256388;28;20307;-69
2023/11/26 17:06:49;;;;;;;2.27;2.17;;;;;;;;;;6232405;28;20295;-70
2023/11/26 17:09:53;;;;;;;1.80;1.80;;;;;;;;;;6230025;28;20540;-72
2023/11/26 17:12:57;;;;;;;2.10;2.00;;;;;;;;;;6232135;28;20294;-69
2023/11/26 17:16:01;;;;;;;2.13;2.13;;;;;;;;;;6237832;28;20246;-69
2023/11/26 17:19:06;;;;;;;2.30;2.00;;;;;;;;;;6231254;28;20299;-68
2023/11/26 17:22:11;;;;;;;1.90;1.90;;;;;;;;;;6232419;28;20549;-70
2023/11/26 17:25:15;;;;;;;1.80;1.80;;;;;;;;;;6231203;28;20319;-69
2023/11/26 17:28:19;;;;;;;2.43;2.07;;;;;;;;;;6231182;28;20635;-69
2023/11/26 17:31:25;;;;;;;2.33;2.17;;;;;;;;;;6231647;28;20302;-69
2023/11/26 17:34:29;;;;;;;2.30;2.20;;;;;;;;;;6229348;28;20295;-69
2023/11/26 17:37:34;;;;;;;2.20;2.00;;;;;;;;;;6231907;28;20291;-70
2023/11/26 17:40:38;;;;;;;3.00;2.80;;;;;;;;;;6231470;28;20294;-68
2023/11/26 17:43:42;;;;;;;1.97;1.97;;;;;;;;;;6231303;28;20482;-68
2023/11/26 17:46:46;;;;;;;2.23;2.13;;;;;;;;;;6231557;28;20285;-69
2023/11/26 17:49:50;;;;;;;2.23;2.13;;;;;;;;;;6230905;28;20492;-69
2023/11/26 17:52:55;;;;;;;2.23;2.23;;;;;;;;;;6230553;28;20322;-68
2023/11/26 17:56:13;;;;;;;2.30;2.20;;;;;;;;;;6231312;28;20323;-68
2023/11/26 17:59:16;;;;;;;2.30;2.10;;;;;;;;;;6230924;28;20296;-70
2023/11/26 18:02:20;;;;;;;2.30;2.20;;;;;;;;;;6231033;28;20552;-70
2023/11/26 18:05:24;;;;;;;2.30;2.20;;;;;;;;;;6257635;28;20406;-71
2023/11/26 18:08:29;;;;;;;2.17;2.17;;;;;;;;;;6279676;28;20305;-69
2023/11/26 18:11:33;;;;;;;2.00;2.00;;;;;;;;;;6278261;28;20604;-70
2023/11/26 18:14:41;;;;;;;2.23;2.23;;;;;;;;;;6279004;28;20302;-70
2023/11/26 18:17:45;;;;;;;2.13;2.13;;;;;;;;;;6279730;28;20292;-68
2023/11/26 18:20:49;;;;;;;2.03;1.93;;;;;;;;;;6279970;28;20583;-69
2023/11/26 18:23:54;;;;;;;1.90;1.80;;;;;;;;;;6279620;28;20301;-70
2023/11/26 18:26:58;;;;;;;1.57;1.57;;;;;;;;;;6279852;28;20299;-69
2023/11/26 18:30:04;;;;;;;1.57;1.57;;;;;;;;;;6279623;28;20306;-72
2023/11/26 18:33:07;;;;;;;1.70;1.70;;;;;;;;;;6277644;28;20436;-71